Time;durP1;ratioP1;P1;durP2;ratioP2;P2;SDS_P1;SDS_P2;PMS_P1;PMS_P2;Temp;Humidity;BMP_temperature;BMP_pressure;BME280_temperature;BME280_humidity;BME280_pressure;Samples;Min_cycle;Max_cycle;Signal;HPM_P1;HPM_P2
2021/05/12 00:00:06;;;;;;;10.73;9.05;;;16.80;64.70;;;;;;1490916;39;20038;-59
2021/05/12 00:01:27;;;;;;;10.85;9.60;;;16.80;64.90;;;;;;1490306;39;20036;-58
2021/05/12 00:02:48;;;;;;;10.52;9.48;;;16.70;64.80;;;;;;1491291;39;20085;-59
2021/05/12 00:04:09;;;;;;;10.77;8.80;;;16.70;64.80;;;;;;1492052;39;20044;-58
2021/05/12 00:05:30;;;;;;;11.20;9.10;;;16.80;64.80;;;;;;1490965;39;20072;-58
2021/05/12 00:06:51;;;;;;;10.68;9.45;;;16.70;64.60;;;;;;1491668;39;20028;-57
2021/05/12 00:08:12;;;;;;;10.48;9.48;;;16.80;64.70;;;;;;1491693;39;20071;-57
2021/05/12 00:09:33;;;;;;;10.93;8.90;;;16.70;64.70;;;;;;1490167;39;20357;-58
2021/05/12 00:10:54;;;;;;;12.90;9.18;;;16.70;64.60;;;;;;1491449;39;20538;-59
2021/05/12 00:12:15;;;;;;;10.82;9.65;;;16.70;64.60;;;;;;1490418;39;20039;-59
2021/05/12 00:13:36;;;;;;;12.80;10.07;;;16.70;64.50;;;;;;1489897;39;20059;-59
2021/05/12 00:14:57;;;;;;;13.43;9.60;;;16.70;64.60;;;;;;1491221;39;20062;-59
2021/05/12 00:16:19;;;;;;;11.38;9.57;;;16.70;64.70;;;;;;1489914;39;20035;-59
2021/05/12 00:17:42;;;;;;;13.15;10.38;;;16.70;64.80;;;;;;1490996;39;20035;-59
2021/05/12 00:19:03;;;;;;;11.70;9.85;;;16.70;64.80;;;;;;1491702;39;20148;-59
2021/05/12 00:20:27;;;;;;;12.10;9.73;;;16.70;64.80;;;;;;1489553;39;20040;-59
2021/05/12 00:21:56;;;;;;;12.68;10.55;;;16.70;64.80;;;;;;1489456;39;20364;-59
2021/05/12 00:23:21;;;;;;;9.90;8.90;;;16.70;64.70;;;;;;1488279;39;20028;-59
2021/05/12 00:24:42;;;;;;;11.02;9.30;;;16.70;64.70;;;;;;1491177;39;20059;-59
2021/05/12 00:26:03;;;;;;;11.50;9.52;;;16.70;64.70;;;;;;1491772;39;20121;-59
2021/05/12 00:27:24;;;;;;;11.13;9.43;;;16.70;64.70;;;;;;1491092;39;20063;-59
2021/05/12 00:28:45;;;;;;;11.20;9.50;;;16.70;64.80;;;;;;1490944;39;20523;-59
2021/05/12 00:30:08;;;;;;;10.57;9.40;;;16.70;64.80;;;;;;1490604;39;20028;-59
2021/05/12 00:31:29;;;;;;;12.13;9.80;;;16.70;64.70;;;;;;1489042;39;20294;-59
2021/05/12 00:32:51;;;;;;;12.10;9.93;;;16.70;64.70;;;;;;1490585;39;20028;-59
2021/05/12 00:34:12;;;;;;;11.63;9.80;;;16.70;64.70;;;;;;1489070;39;20059;-59
2021/05/12 00:35:33;;;;;;;11.52;10.23;;;16.70;64.70;;;;;;1491393;39;20050;-59
2021/05/12 00:36:53;;;;;;;16.63;10.10;;;16.70;64.60;;;;;;1491254;39;20028;-59
2021/05/12 00:38:14;;;;;;;15.00;10.93;;;16.70;64.80;;;;;;1491606;39;20036;-59
2021/05/12 00:39:35;;;;;;;14.23;10.90;;;16.70;64.80;;;;;;1491069;39;20356;-59
2021/05/12 00:40:56;;;;;;;13.10;9.80;;;16.70;64.70;;;;;;1491277;39;20020;-59
2021/05/12 00:42:17;;;;;;;12.48;10.55;;;16.70;64.70;;;;;;1491526;39;20035;-59
2021/05/12 00:43:38;;;;;;;13.80;10.82;;;16.70;64.70;;;;;;1489870;39;20158;-59
2021/05/12 00:45:00;;;;;;;13.77;10.52;;;16.70;64.80;;;;;;1491597;39;20024;-59
2021/05/12 00:46:21;;;;;;;12.20;10.38;;;16.70;64.80;;;;;;1490435;39;20276;-59
2021/05/12 00:47:42;;;;;;;12.75;10.82;;;16.70;64.70;;;;;;1490195;39;20024;-59
2021/05/12 00:49:03;;;;;;;12.40;9.85;;;16.70;64.70;;;;;;1490635;39;20411;-59
2021/05/12 00:50:24;;;;;;;13.52;10.57;;;16.60;64.70;;;;;;1490888;39;20085;-59
2021/05/12 00:51:45;;;;;;;15.38;11.35;;;16.70;64.90;;;;;;1489982;39;20373;-59
2021/05/12 00:53:08;;;;;;;11.38;10.13;;;16.60;65.00;;;;;;1491978;39;20043;-59
2021/05/12 00:54:30;;;;;;;13.77;10.30;;;16.70;65.20;;;;;;1491272;39;20031;-59
2021/05/12 00:55:51;;;;;;;11.90;9.90;;;16.60;65.10;;;;;;1491001;39;20038;-59
2021/05/12 00:57:12;;;;;;;12.55;10.23;;;16.70;65.00;;;;;;1491327;39;20273;-59
2021/05/12 00:58:33;;;;;;;15.02;9.80;;;16.70;64.90;;;;;;1490094;39;20043;-59
2021/05/12 00:59:55;;;;;;;11.95;10.02;;;16.70;65.00;;;;;;1491420;39;20264;-59
2021/05/12 01:01:16;;;;;;;12.32;10.88;;;16.70;65.00;;;;;;1491836;39;20112;-59
2021/05/12 01:02:37;;;;;;;12.32;9.55;;;16.70;64.80;;;;;;1491061;39;20027;-59
2021/05/12 01:03:58;;;;;;;14.40;10.32;;;16.70;64.70;;;;;;1491356;39;20094;-59
2021/05/12 01:05:43;;;;;;;11.15;10.05;;;16.70;64.70;;;;;;1491606;39;20042;-59
2021/05/12 01:07:04;;;;;;;13.07;10.20;;;16.70;64.60;;;;;;1490818;39;20038;-59
2021/05/12 01:08:27;;;;;;;11.10;9.73;;;16.70;64.60;;;;;;1490594;39;20086;-59
2021/05/12 01:09:48;;;;;;;12.35;10.27;;;16.70;64.50;;;;;;1490992;39;20023;-59
2021/05/12 01:11:09;;;;;;;12.65;9.63;;;16.70;64.50;;;;;;1489331;39;20120;-59
2021/05/12 01:12:29;;;;;;;14.57;10.95;;;16.60;64.40;;;;;;1490171;39;20028;-58
2021/05/12 01:13:51;;;;;;;11.55;10.07;;;16.60;64.40;;;;;;1491537;39;20332;-59
2021/05/12 01:15:13;;;;;;;12.15;9.68;;;16.60;64.40;;;;;;1491579;39;20031;-59
2021/05/12 01:16:34;;;;;;;13.80;9.93;;;16.60;64.50;;;;;;1490723;39;20289;-59
2021/05/12 01:18:15;;;;;;;13.35;10.00;;;16.60;64.50;;;;;;1491133;39;20028;-59
2021/05/12 01:19:36;;;;;;;11.43;9.27;;;16.60;64.80;;;;;;1491184;39;20054;-59
2021/05/12 01:21:04;;;;;;;11.43;9.70;;;16.60;64.40;;;;;;1489038;39;20036;-59
2021/05/12 01:22:24;;;;;;;14.13;9.68;;;16.60;64.30;;;;;;1489858;39;20046;-58
2021/05/12 01:23:47;;;;;;;11.80;9.52;;;16.60;64.40;;;;;;1489280;39;20032;-59
2021/05/12 01:25:09;;;;;;;13.55;10.20;;;16.60;64.40;;;;;;1490443;39;20357;-58
2021/05/12 01:26:30;;;;;;;12.70;9.45;;;16.60;64.40;;;;;;1489636;39;20043;-59
2021/05/12 01:27:51;;;;;;;12.50;9.30;;;16.50;64.40;;;;;;1490848;39;20016;-59
2021/05/12 01:29:12;;;;;;;11.60;9.70;;;16.60;64.50;;;;;;1491326;39;20056;-59
2021/05/12 01:30:33;;;;;;;11.68;9.48;;;16.50;64.30;;;;;;1490733;39;20054;-59
2021/05/12 01:31:55;;;;;;;13.35;9.35;;;16.50;64.30;;;;;;1486886;40;20024;-59
2021/05/12 01:33:16;;;;;;;12.60;9.32;;;16.50;64.20;;;;;;1489687;39;20512;-59
2021/05/12 01:34:36;;;;;;;10.93;9.80;;;16.50;64.20;;;;;;1490769;39;20035;-59
2021/05/12 01:35:59;;;;;;;12.98;9.75;;;16.50;64.20;;;;;;1489158;39;20292;-59
2021/05/12 01:37:20;;;;;;;10.20;8.93;;;16.50;64.20;;;;;;1489668;39;20053;-58
2021/05/12 01:38:43;;;;;;;12.23;9.30;;;16.50;65.00;;;;;;1488902;39;20072;-59
2021/05/12 01:40:06;;;;;;;12.45;9.68;;;16.50;64.20;;;;;;1491137;39;20061;-59
2021/05/12 01:41:28;;;;;;;12.25;9.20;;;16.50;64.20;;;;;;1490899;39;20040;-59
2021/05/12 01:42:49;;;;;;;12.65;9.35;;;16.50;64.40;;;;;;1489279;39;20026;-59
2021/05/12 01:44:11;;;;;;;10.80;9.23;;;16.50;64.30;;;;;;1489304;39;20023;-58
2021/05/12 01:45:32;;;;;;;13.07;10.25;;;16.50;64.40;;;;;;1491511;39;20034;-59
2021/05/12 01:46:53;;;;;;;12.82;9.43;;;16.50;64.40;;;;;;1489931;39;20043;-59
2021/05/12 01:48:14;;;;;;;11.50;9.05;;;16.50;64.50;;;;;;1491230;39;20028;-59
2021/05/12 01:49:35;;;;;;;12.15;9.38;;;16.50;64.50;;;;;;1490135;39;20093;-59
2021/05/12 01:50:57;;;;;;;11.07;9.27;;;16.50;64.40;;;;;;1491679;39;20070;-58
2021/05/12 01:52:18;;;;;;;11.50;8.93;;;16.50;64.40;;;;;;1489698;39;20036;-59
2021/05/12 01:53:40;;;;;;;11.68;9.52;;;16.50;64.40;;;;;;1490013;39;20035;-59
2021/05/12 01:55:00;;;;;;;13.38;9.40;;;16.50;64.20;;;;;;1488683;39;20035;-59
2021/05/12 01:56:21;;;;;;;11.32;8.88;;;16.50;64.00;;;;;;1488661;39;20116;-59
2021/05/12 01:57:44;;;;;;;10.57;8.30;;;16.50;64.10;;;;;;1490696;39;20024;-59
2021/05/12 01:59:06;;;;;;;12.50;8.77;;;16.50;64.10;;;;;;1490393;39;20046;-59
2021/05/12 02:00:35;;;;;;;11.10;9.55;;;16.50;64.10;;;;;;1490631;39;20038;-59
2021/05/12 02:01:56;;;;;;;10.30;8.77;;;16.50;64.80;;;;;;1489749;39;20040;-59
2021/05/12 02:03:18;;;;;;;11.85;8.90;;;16.50;64.00;;;;;;1491196;39;20028;-59
2021/05/12 02:04:39;;;;;;;13.60;9.10;;;16.50;64.00;;;;;;1490576;39;20036;-59
2021/05/12 02:06:00;;;;;;;10.75;8.98;;;16.50;64.00;;;;;;1489275;39;20096;-59
2021/05/12 02:07:21;;;;;;;11.80;8.85;;;16.50;64.20;;;;;;1489971;39;20441;-59
2021/05/12 02:08:42;;;;;;;10.48;8.82;;;16.50;64.20;;;;;;1489501;39;20080;-59
2021/05/12 02:10:04;;;;;;;9.25;8.07;;;16.40;64.20;;;;;;1490974;39;20132;-59
2021/05/12 02:11:25;;;;;;;13.38;8.75;;;16.50;64.30;;;;;;1490856;39;20039;-59
2021/05/12 02:12:46;;;;;;;9.45;8.23;;;16.50;64.50;;;;;;1489817;39;20027;-59
2021/05/12 02:14:07;;;;;;;14.48;9.60;;;16.50;64.50;;;;;;1490973;39;20047;-59
2021/05/12 02:15:28;;;;;;;13.00;9.52;;;16.40;64.50;;;;;;1490151;39;20040;-59
2021/05/12 02:16:49;;;;;;;9.77;8.73;;;16.40;64.40;;;;;;1490683;39;20039;-59
2021/05/12 02:18:11;;;;;;;11.48;8.73;;;16.50;64.30;;;;;;1490859;39;20059;-58
2021/05/12 02:19:32;;;;;;;11.23;8.10;;;16.50;64.20;;;;;;1489730;39;20381;-59
2021/05/12 02:20:53;;;;;;;10.52;8.18;;;16.50;64.20;;;;;;1490970;39;20043;-59
2021/05/12 02:22:14;;;;;;;12.55;9.02;;;16.50;64.20;;;;;;1491183;39;20114;-59
2021/05/12 02:23:35;;;;;;;10.43;8.35;;;16.50;64.20;;;;;;1490595;39;20035;-59
2021/05/12 02:24:56;;;;;;;12.35;9.27;;;16.40;64.20;;;;;;1491154;39;20020;-58
2021/05/12 02:26:16;;;;;;;9.75;8.45;;;16.50;64.40;;;;;;1491191;39;20089;-59
2021/05/12 02:27:37;;;;;;;10.23;8.25;;;16.50;64.50;;;;;;1486554;39;20036;-59
2021/05/12 02:28:58;;;;;;;13.60;8.52;;;16.50;64.50;;;;;;1489277;39;20035;-59
2021/05/12 02:30:20;;;;;;;10.40;8.65;;;16.50;64.30;;;;;;1491770;39;20378;-59
2021/05/12 02:31:41;;;;;;;11.70;9.02;;;16.50;64.20;;;;;;1490868;39;20031;-58
2021/05/12 02:33:03;;;;;;;13.07;8.73;;;16.50;64.20;;;;;;1491664;39;20016;-58
2021/05/12 02:34:24;;;;;;;12.05;8.50;;;16.50;64.20;;;;;;1491963;39;20424;-59
2021/05/12 02:35:45;;;;;;;12.18;8.20;;;16.40;64.10;;;;;;1491862;39;20052;-59
2021/05/12 02:37:06;;;;;;;12.48;8.93;;;16.50;64.20;;;;;;1490485;39;20113;-59
2021/05/12 02:38:27;;;;;;;12.27;8.60;;;16.50;64.30;;;;;;1489568;39;20252;-58
2021/05/12 02:39:49;;;;;;;11.75;8.80;;;16.50;64.20;;;;;;1492055;39;20027;-59
2021/05/12 02:41:11;;;;;;;9.88;8.25;;;16.50;64.10;;;;;;1492052;39;20027;-59
2021/05/12 02:42:32;;;;;;;10.02;8.13;;;16.50;64.10;;;;;;1486800;40;20047;-59
2021/05/12 02:43:53;;;;;;;12.95;8.73;;;16.50;64.20;;;;;;1489858;39;20034;-59
2021/05/12 02:45:15;;;;;;;11.38;8.38;;;16.50;64.10;;;;;;1491990;39;20048;-58
2021/05/12 02:46:36;;;;;;;10.57;8.82;;;16.50;64.20;;;;;;1489702;39;20028;-59
2021/05/12 02:47:57;;;;;;;13.05;9.05;;;16.50;64.30;;;;;;1491446;39;20348;-59
2021/05/12 02:49:18;;;;;;;10.70;8.32;;;16.50;64.40;;;;;;1491820;39;20024;-59
2021/05/12 02:50:42;;;;;;;11.50;8.00;;;16.50;64.30;;;;;;1491427;39;21904;-59
2021/05/12 02:52:03;;;;;;;10.00;8.02;;;16.50;65.00;;;;;;1491499;39;20292;-58
2021/05/12 02:53:24;;;;;;;9.55;8.13;;;16.40;64.20;;;;;;1490391;39;20028;-59
2021/05/12 02:54:45;;;;;;;9.75;7.93;;;16.50;64.20;;;;;;1491622;39;20077;-59
2021/05/12 02:56:06;;;;;;;10.90;7.85;;;16.50;64.20;;;;;;1491574;39;20035;-59
2021/05/12 02:57:27;;;;;;;10.82;8.38;;;16.50;64.20;;;;;;1491296;39;20040;-59
2021/05/12 02:58:48;;;;;;;11.90;8.38;;;16.50;64.00;;;;;;1490868;39;20036;-57
2021/05/12 03:00:10;;;;;;;11.90;8.32;;;16.50;64.10;;;;;;1491524;39;20043;-59
2021/05/12 03:01:31;;;;;;;9.75;8.52;;;16.50;64.20;;;;;;1489604;39;20031;-59
2021/05/12 03:02:53;;;;;;;9.05;7.50;;;16.40;64.00;;;;;;1490895;39;20035;-59
2021/05/12 03:04:13;;;;;;;13.00;8.82;;;16.50;64.00;;;;;;1491680;39;20138;-59
2021/05/12 03:05:35;;;;;;;11.85;8.18;;;16.40;64.10;;;;;;1491260;39;20377;-59
2021/05/12 03:06:56;;;;;;;11.20;7.93;;;16.40;64.10;;;;;;1489312;39;20091;-59
2021/05/12 03:08:17;;;;;;;11.18;8.20;;;16.40;64.10;;;;;;1491518;39;20039;-59
2021/05/12 03:09:38;;;;;;;8.70;7.80;;;16.40;64.10;;;;;;1491948;39;20032;-59
2021/05/12 03:10:59;;;;;;;9.20;7.85;;;16.40;64.10;;;;;;1490830;39;20020;-59
2021/05/12 03:12:20;;;;;;;10.57;8.38;;;16.40;64.20;;;;;;1490955;39;20339;-59
2021/05/12 03:13:40;;;;;;;9.90;7.75;;;16.40;64.20;;;;;;1490137;39;20082;-59
2021/05/12 03:15:02;;;;;;;9.50;7.95;;;16.40;64.30;;;;;;1490926;39;20020;-59
2021/05/12 03:16:23;;;;;;;10.52;8.43;;;16.40;64.30;;;;;;1490725;39;20121;-59
2021/05/12 03:17:44;;;;;;;9.05;7.63;;;16.40;64.20;;;;;;1492013;39;20048;-59
2021/05/12 03:19:05;;;;;;;10.50;8.13;;;16.40;64.30;;;;;;1491689;39;20028;-59
2021/05/12 03:20:28;;;;;;;10.35;7.80;;;16.40;64.30;;;;;;1490527;39;20044;-59
2021/05/12 03:21:49;;;;;;;11.48;8.35;;;16.40;64.30;;;;;;1490203;39;20024;-59
2021/05/12 03:23:10;;;;;;;10.25;7.47;;;16.40;64.30;;;;;;1491531;39;20024;-59
2021/05/12 03:24:31;;;;;;;9.95;7.53;;;16.40;64.30;;;;;;1489620;39;20034;-59
2021/05/12 03:25:52;;;;;;;9.35;8.32;;;16.40;64.30;;;;;;1491700;39;20327;-59
2021/05/12 03:27:13;;;;;;;11.23;8.50;;;16.40;64.30;;;;;;1489911;39;20052;-59
2021/05/12 03:28:34;;;;;;;13.95;8.55;;;16.40;64.20;;;;;;1490794;39;20101;-59
2021/05/12 03:29:54;;;;;;;10.60;8.35;;;16.40;64.20;;;;;;1490426;39;20018;-59
2021/05/12 03:31:15;;;;;;;12.05;9.10;;;16.40;64.20;;;;;;1487101;40;20032;-59
2021/05/12 03:32:36;;;;;;;10.77;9.20;;;16.30;64.10;;;;;;1490723;39;20128;-59
2021/05/12 03:33:57;;;;;;;10.68;8.98;;;16.40;64.20;;;;;;1491981;39;20047;-59
2021/05/12 03:35:18;;;;;;;11.48;9.55;;;16.30;64.20;;;;;;1491603;39;20114;-59
2021/05/12 03:36:39;;;;;;;12.25;10.00;;;16.40;64.30;;;;;;1488815;39;20035;-59
2021/05/12 03:38:00;;;;;;;12.63;9.68;;;16.40;64.10;;;;;;1490556;39;20071;-59
2021/05/12 03:39:21;;;;;;;14.45;10.23;;;16.30;64.00;;;;;;1490674;39;20032;-59
2021/05/12 03:40:42;;;;;;;16.00;10.48;;;16.30;64.00;;;;;;1490945;39;20049;-59
2021/05/12 03:42:04;;;;;;;12.27;9.40;;;16.30;64.00;;;;;;1490092;39;20599;-59
2021/05/12 03:43:25;;;;;;;11.60;9.63;;;16.30;64.10;;;;;;1489317;39;20060;-59
2021/05/12 03:44:45;;;;;;;12.30;9.75;;;16.30;64.10;;;;;;1490486;39;20024;-59
2021/05/12 03:46:06;;;;;;;13.02;10.15;;;16.30;64.10;;;;;;1491748;39;20030;-59
2021/05/12 03:47:27;;;;;;;10.52;9.13;;;16.30;64.10;;;;;;1490243;39;20040;-59
2021/05/12 03:48:48;;;;;;;16.48;10.60;;;16.30;64.20;;;;;;1489361;39;20139;-59
2021/05/12 03:50:10;;;;;;;12.93;10.07;;;16.30;64.20;;;;;;1491408;39;20031;-59
2021/05/12 03:51:31;;;;;;;13.43;9.93;;;16.30;64.20;;;;;;1491004;39;20050;-59
2021/05/12 03:52:52;;;;;;;14.35;10.65;;;16.20;64.20;;;;;;1490917;39;20076;-59
2021/05/12 03:54:13;;;;;;;13.00;10.63;;;16.30;64.20;;;;;;1491941;39;20038;-59
2021/05/12 03:55:35;;;;;;;16.15;10.60;;;16.20;64.10;;;;;;1491434;39;20132;-59
2021/05/12 03:56:56;;;;;;;15.20;10.73;;;16.20;64.30;;;;;;1491616;39;20032;-59
2021/05/12 03:58:17;;;;;;;13.57;10.48;;;16.20;64.40;;;;;;1488608;39;20024;-59
2021/05/12 03:59:38;;;;;;;14.57;11.60;;;16.20;64.40;;;;;;1491443;39;20043;-59
2021/05/12 04:00:59;;;;;;;12.43;10.82;;;16.20;64.50;;;;;;1489684;39;20105;-58
2021/05/12 04:02:20;;;;;;;13.60;10.15;;;16.20;64.50;;;;;;1491276;39;20024;-58
2021/05/12 04:03:41;;;;;;;13.65;10.95;;;16.20;64.50;;;;;;1491056;39;20274;-58
2021/05/12 04:05:03;;;;;;;14.70;11.55;;;16.20;64.50;;;;;;1491263;39;20023;-58
2021/05/12 04:06:23;;;;;;;17.48;11.43;;;16.20;64.50;;;;;;1491470;39;20024;-58
2021/05/12 04:07:44;;;;;;;14.73;10.90;;;16.20;64.40;;;;;;1490670;39;20034;-59
2021/05/12 04:09:05;;;;;;;19.00;11.43;;;16.20;64.40;;;;;;1491329;39;20157;-58
2021/05/12 04:10:26;;;;;;;14.23;11.38;;;16.20;64.40;;;;;;1485269;40;20420;-58
2021/05/12 04:11:48;;;;;;;13.48;11.10;;;16.20;64.40;;;;;;1487939;39;20396;-59
2021/05/12 04:13:09;;;;;;;16.63;10.93;;;16.20;64.40;;;;;;1491066;39;20076;-58
2021/05/12 04:14:29;;;;;;;16.48;11.40;;;16.20;64.50;;;;;;1490893;39;20531;-59
2021/05/12 04:15:50;;;;;;;11.15;10.02;;;16.20;64.60;;;;;;1490078;39;20113;-59
2021/05/12 04:17:11;;;;;;;14.48;10.85;;;16.10;64.60;;;;;;1491612;39;20104;-60
2021/05/12 04:18:32;;;;;;;12.15;10.27;;;16.20;64.80;;;;;;1487433;40;20032;-59
2021/05/12 04:19:54;;;;;;;16.75;11.70;;;16.20;65.50;;;;;;1490629;39;20024;-60
2021/05/12 04:21:15;;;;;;;13.57;10.80;;;16.10;64.70;;;;;;1491270;39;20027;-59
2021/05/12 04:22:37;;;;;;;15.70;10.60;;;16.20;64.70;;;;;;1489328;39;20032;-60
2021/05/12 04:23:58;;;;;;;15.15;11.38;;;16.20;64.70;;;;;;1491840;39;20036;-60
2021/05/12 04:25:22;;;;;;;15.23;11.48;;;16.20;64.80;;;;;;1489774;39;20028;-59
2021/05/12 04:26:43;;;;;;;13.23;10.30;;;16.10;64.80;;;;;;1491180;39;20124;-60
2021/05/12 04:28:04;;;;;;;13.18;10.80;;;16.20;64.80;;;;;;1490871;39;20047;-59
2021/05/12 04:29:25;;;;;;;15.50;10.82;;;16.20;64.80;;;;;;1489888;39;20129;-59
2021/05/12 04:30:46;;;;;;;13.05;11.30;;;16.20;64.90;;;;;;1485641;39;20024;-60
2021/05/12 04:32:07;;;;;;;16.48;10.93;;;16.20;64.90;;;;;;1488345;39;20032;-60
2021/05/12 04:33:28;;;;;;;15.73;11.68;;;16.20;64.80;;;;;;1491479;39;20035;-60
2021/05/12 04:34:49;;;;;;;16.50;11.00;;;16.20;64.80;;;;;;1491269;39;20084;-59
2021/05/12 04:36:10;;;;;;;14.35;11.82;;;16.20;64.70;;;;;;1491389;39;20041;-59
2021/05/12 04:37:31;;;;;;;15.00;11.77;;;16.20;64.80;;;;;;1491686;39;20055;-60
2021/05/12 04:38:52;;;;;;;17.48;11.57;;;16.20;64.90;;;;;;1491571;39;20111;-59
2021/05/12 04:40:13;;;;;;;15.68;11.48;;;16.20;65.00;;;;;;1491670;39;20055;-57
2021/05/12 04:41:35;;;;;;;13.68;10.15;;;16.20;64.90;;;;;;1491474;39;20035;-60
2021/05/12 04:42:56;;;;;;;12.45;10.23;;;16.20;65.00;;;;;;1490509;39;20020;-60
2021/05/12 04:44:16;;;;;;;16.02;11.02;;;16.20;65.10;;;;;;1490016;39;20032;-60
2021/05/12 04:45:37;;;;;;;13.20;10.60;;;16.20;65.10;;;;;;1491475;39;20034;-59
2021/05/12 04:46:58;;;;;;;13.30;10.50;;;16.20;65.00;;;;;;1491768;39;20028;-60
2021/05/12 04:48:19;;;;;;;16.58;10.73;;;16.20;65.00;;;;;;1489598;39;20556;-60
2021/05/12 04:49:40;;;;;;;13.75;9.93;;;16.20;64.90;;;;;;1491559;39;20046;-60
2021/05/12 04:51:01;;;;;;;13.55;10.05;;;16.20;64.90;;;;;;1490380;39;20291;-60
2021/05/12 04:52:22;;;;;;;13.60;10.40;;;16.20;64.80;;;;;;1491300;39;20039;-59
2021/05/12 04:53:43;;;;;;;12.82;10.07;;;16.20;64.70;;;;;;1490798;39;20051;-60
2021/05/12 04:55:05;;;;;;;14.20;10.98;;;16.20;64.70;;;;;;1490093;39;20031;-60
2021/05/12 04:56:26;;;;;;;13.88;10.63;;;16.20;64.60;;;;;;1490098;39;20083;-60
2021/05/12 04:57:47;;;;;;;14.88;10.95;;;16.30;64.60;;;;;;1489841;39;20036;-60
2021/05/12 04:59:08;;;;;;;14.43;10.23;;;16.20;64.50;;;;;;1490636;39;20039;-59
2021/05/12 05:00:29;;;;;;;15.20;10.55;;;16.20;64.50;;;;;;1491385;39;20360;-60
2021/05/12 05:01:50;;;;;;;14.02;10.65;;;16.30;64.60;;;;;;1490984;39;20040;-60
2021/05/12 05:03:11;;;;;;;11.50;9.70;;;16.20;64.50;;;;;;1491247;39;20031;-60
2021/05/12 05:04:32;;;;;;;13.05;10.25;;;16.20;64.50;;;;;;1490549;39;20570;-60
2021/05/12 05:05:53;;;;;;;13.48;9.48;;;16.20;64.40;;;;;;1491035;39;20035;-60
2021/05/12 05:07:14;;;;;;;12.05;9.45;;;16.20;64.30;;;;;;1491359;39;20028;-60
2021/05/12 05:08:35;;;;;;;13.95;9.30;;;16.30;64.40;;;;;;1489433;39;20038;-60
2021/05/12 05:10:00;;;;;;;11.85;9.30;;;16.20;64.40;;;;;;1490960;39;20032;-60
2021/05/12 05:11:21;;;;;;;16.17;9.90;;;16.30;64.40;;;;;;1490174;39;20035;-59
2021/05/12 05:12:42;;;;;;;13.15;9.48;;;16.20;64.30;;;;;;1489473;39;20036;-60
2021/05/12 05:14:04;;;;;;;11.73;9.13;;;16.30;64.40;;;;;;1489113;39;20040;-60
2021/05/12 05:15:25;;;;;;;15.43;10.23;;;16.20;64.30;;;;;;1486506;40;20032;-60
2021/05/12 05:16:47;;;;;;;10.98;8.68;;;16.20;64.20;;;;;;1489434;39;20024;-60
2021/05/12 05:18:09;;;;;;;10.32;8.75;;;16.20;64.20;;;;;;1491733;39;20128;-59
2021/05/12 05:19:30;;;;;;;12.88;9.52;;;16.20;64.30;;;;;;1490940;39;20024;-59
2021/05/12 05:20:54;;;;;;;11.43;8.63;;;16.20;64.40;;;;;;1490742;39;20521;-59
2021/05/12 05:22:16;;;;;;;10.02;8.60;;;16.20;64.40;;;;;;1490661;39;20031;-59
2021/05/12 05:23:38;;;;;;;11.07;8.65;;;16.20;64.40;;;;;;1490597;39;20049;-59
2021/05/12 05:24:58;;;;;;;13.13;8.70;;;16.20;64.50;;;;;;1490336;39;20038;-59
2021/05/12 05:26:19;;;;;;;13.13;8.82;;;16.20;64.50;;;;;;1490348;39;20504;-59
2021/05/12 05:27:40;;;;;;;12.18;8.73;;;16.20;64.40;;;;;;1490811;39;20036;-59
2021/05/12 05:29:02;;;;;;;11.38;8.38;;;16.20;64.40;;;;;;1490175;39;20044;-59
2021/05/12 05:30:23;;;;;;;11.48;8.15;;;16.20;64.50;;;;;;1489935;39;20023;-59
2021/05/12 05:31:44;;;;;;;11.05;8.27;;;16.20;64.40;;;;;;1490357;39;20067;-60
2021/05/12 05:33:05;;;;;;;11.98;8.25;;;16.20;64.40;;;;;;1489055;39;20032;-59
2021/05/12 05:34:25;;;;;;;11.52;8.95;;;16.20;64.40;;;;;;1491190;39;20027;-60
2021/05/12 05:35:47;;;;;;;9.63;7.88;;;16.20;64.40;;;;;;1490957;39;20268;-60
2021/05/12 05:37:08;;;;;;;8.55;6.90;;;16.20;64.40;;;;;;1491155;39;20039;-60
2021/05/12 05:38:28;;;;;;;11.10;7.75;;;16.20;64.30;;;;;;1489628;39;20124;-60
2021/05/12 05:39:54;;;;;;;9.77;8.07;;;16.20;64.40;;;;;;1491327;39;20027;-59
2021/05/12 05:41:17;;;;;;;10.88;7.85;;;16.20;64.30;;;;;;1491719;39;20019;-60
2021/05/12 05:42:37;;;;;;;12.23;8.02;;;16.20;64.30;;;;;;1490506;39;20100;-60
2021/05/12 05:43:58;;;;;;;9.77;7.47;;;16.20;64.40;;;;;;1490525;39;20031;-61
2021/05/12 05:45:19;;;;;;;9.38;7.38;;;16.20;64.40;;;;;;1490223;39;20035;-60
2021/05/12 05:46:40;;;;;;;12.45;7.05;;;16.20;64.40;;;;;;1490990;39;20051;-59
2021/05/12 05:48:01;;;;;;;8.32;7.05;;;16.10;64.30;;;;;;1491934;39;20032;-60
2021/05/12 05:49:23;;;;;;;7.57;6.43;;;16.20;64.30;;;;;;1489841;39;20032;-60
2021/05/12 05:50:44;;;;;;;8.63;6.90;;;16.10;64.30;;;;;;1491129;39;20039;-60
2021/05/12 05:52:05;;;;;;;7.68;6.47;;;16.20;64.20;;;;;;1491128;39;20039;-59
2021/05/12 05:53:26;;;;;;;8.80;6.25;;;16.10;64.20;;;;;;1489389;39;20038;-60
2021/05/12 05:54:47;;;;;;;7.97;6.20;;;16.10;64.20;;;;;;1490940;39;20027;-60
2021/05/12 05:56:08;;;;;;;8.82;6.40;;;16.10;64.20;;;;;;1490579;39;20032;-60
2021/05/12 05:57:29;;;;;;;8.48;6.20;;;16.10;64.10;;;;;;1490781;39;20028;-60
2021/05/12 05:58:50;;;;;;;7.82;5.78;;;16.10;64.30;;;;;;1490544;39;20027;-60
2021/05/12 06:00:11;;;;;;;8.30;5.97;;;16.10;64.40;;;;;;1491478;39;20503;-60
2021/05/12 06:01:32;;;;;;;7.22;5.22;;;16.10;64.40;;;;;;1490619;39;20039;-60
2021/05/12 06:02:53;;;;;;;8.30;5.70;;;16.10;64.50;;;;;;1488899;39;20038;-60
2021/05/12 06:04:14;;;;;;;11.20;6.60;;;16.10;64.30;;;;;;1491818;39;20441;-60
2021/05/12 06:05:35;;;;;;;7.30;5.22;;;16.10;64.30;;;;;;1492185;39;20036;-60
2021/05/12 06:06:56;;;;;;;7.18;5.25;;;16.10;64.30;;;;;;1491980;39;20661;-60
2021/05/12 06:08:17;;;;;;;8.73;5.32;;;16.10;64.20;;;;;;1491980;39;20062;-60
2021/05/12 06:09:38;;;;;;;9.80;5.38;;;16.10;64.30;;;;;;1491877;39;20031;-61
2021/05/12 06:10:59;;;;;;;7.10;4.97;;;16.20;64.20;;;;;;1491537;39;20533;-60
2021/05/12 06:12:19;;;;;;;6.85;4.75;;;16.10;64.10;;;;;;1488850;39;20032;-60
2021/05/12 06:13:40;;;;;;;9.15;5.15;;;16.20;64.20;;;;;;1489901;39;20356;-60
2021/05/12 06:15:02;;;;;;;6.90;5.40;;;16.20;64.20;;;;;;1492111;39;20031;-60
2021/05/12 06:16:23;;;;;;;8.32;5.93;;;16.20;64.20;;;;;;1491842;39;20044;-60
2021/05/12 06:17:44;;;;;;;8.13;5.60;;;16.20;64.10;;;;;;1492032;39;21500;-59
2021/05/12 06:19:05;;;;;;;8.48;5.78;;;16.20;64.00;;;;;;1491209;39;20020;-60
2021/05/12 06:20:25;;;;;;;7.55;5.03;;;16.20;64.00;;;;;;1491594;39;20062;-60
2021/05/12 06:21:46;;;;;;;7.85;4.97;;;16.20;64.00;;;;;;1491158;39;20064;-60
2021/05/12 06:23:07;;;;;;;7.30;4.78;;;16.30;64.00;;;;;;1487423;40;20087;-60
2021/05/12 06:24:28;;;;;;;7.57;5.40;;;16.30;64.00;;;;;;1490674;39;20143;-60
2021/05/12 06:25:52;;;;;;;6.93;4.82;;;16.30;63.90;;;;;;1492046;39;20077;-59
2021/05/12 06:27:13;;;;;;;8.68;5.25;;;16.30;63.80;;;;;;1491906;39;20038;-60
2021/05/12 06:28:34;;;;;;;6.28;4.70;;;16.30;63.70;;;;;;1490487;39;20238;-60
2021/05/12 06:29:55;;;;;;;8.65;5.20;;;16.30;63.70;;;;;;1491793;39;20121;-60
2021/05/12 06:31:16;;;;;;;6.30;4.90;;;16.30;63.70;;;;;;1491572;39;20023;-59
2021/05/12 06:32:37;;;;;;;8.50;4.82;;;16.30;63.60;;;;;;1491605;39;20036;-60
2021/05/12 06:34:00;;;;;;;7.88;5.25;;;16.30;63.60;;;;;;1490099;39;20051;-60
2021/05/12 06:35:21;;;;;;;7.85;5.07;;;16.40;63.70;;;;;;1485091;40;20020;-60
2021/05/12 06:36:42;;;;;;;8.57;5.63;;;16.40;63.70;;;;;;1490321;39;20148;-60
2021/05/12 06:38:03;;;;;;;7.35;5.57;;;16.40;63.60;;;;;;1491486;39;20372;-60
2021/05/12 06:39:25;;;;;;;7.93;5.20;;;16.40;63.40;;;;;;1491326;39;20043;-60
2021/05/12 06:40:46;;;;;;;9.07;5.40;;;16.40;63.20;;;;;;1491360;39;20031;-61
2021/05/12 06:42:07;;;;;;;6.82;5.50;;;16.50;63.10;;;;;;1491275;39;20379;-60
2021/05/12 06:43:28;;;;;;;7.97;5.18;;;16.50;63.10;;;;;;1489255;39;20028;-60
2021/05/12 06:44:49;;;;;;;7.85;5.10;;;16.50;63.00;;;;;;1491822;39;20179;-60
2021/05/12 06:46:10;;;;;;;6.50;5.15;;;16.50;62.90;;;;;;1491477;39;20036;-61
2021/05/12 06:47:31;;;;;;;6.43;4.47;;;16.60;62.70;;;;;;1491800;39;20064;-61
2021/05/12 06:48:51;;;;;;;6.72;4.97;;;16.50;62.40;;;;;;1489969;39;20029;-61
2021/05/12 06:50:12;;;;;;;8.07;5.22;;;16.50;62.40;;;;;;1489605;39;20035;-61
2021/05/12 06:51:33;;;;;;;9.60;5.00;;;16.50;62.40;;;;;;1487237;40;20320;-61
2021/05/12 06:52:56;;;;;;;7.47;5.40;;;16.60;62.50;;;;;;1489683;39;20020;-61
2021/05/12 06:54:17;;;;;;;6.75;5.50;;;16.50;62.40;;;;;;1491884;39;20015;-61
2021/05/12 06:55:38;;;;;;;9.02;5.72;;;16.60;62.60;;;;;;1490539;39;20044;-61
2021/05/12 06:56:59;;;;;;;7.32;5.20;;;16.60;62.60;;;;;;1490477;39;20328;-61